Time;durP1;ratioP1;P1;durP2;ratioP2;P2;SDS_P1;SDS_P2;PMS_P1;PMS_P2;Temp;Humidity;BMP_temperature;BMP_pressure;BME280_temperature;BME280_humidity;BME280_pressure;Samples;Min_cycle;Max_cycle;Signal;HPM_P1;HPM_P2
2023/12/11 00:01:02;;;;;;;35.55;16.17;;;;;;;3.71;82.87;99890.41;5050659;28;20028;-26
2023/12/11 00:03:27;;;;;;;33.90;16.15;;;;;;;3.73;83.20;99895.50;5050562;28;20052;-25
2023/12/11 00:05:52;;;;;;;37.33;16.33;;;;;;;3.74;82.82;99901.59;5050697;28;20117;-25
2023/12/11 00:08:18;;;;;;;36.67;16.00;;;;;;;3.77;83.31;99899.50;5050583;28;20028;-26
2023/12/11 00:10:43;;;;;;;39.40;16.83;;;;;;;3.65;83.69;99900.72;5050538;28;20025;-25
2023/12/11 00:13:08;;;;;;;35.38;16.25;;;;;;;3.46;84.27;99905.19;5050544;28;20107;-26
2023/12/11 00:15:34;;;;;;;38.97;15.80;;;;;;;3.38;85.23;99902.50;5050498;28;20032;-26
2023/12/11 00:17:59;;;;;;;34.15;15.93;;;;;;;3.35;86.27;99913.34;5050523;28;20033;-26
2023/12/11 00:20:25;;;;;;;35.95;16.00;;;;;;;3.37;85.86;99906.13;5050363;28;20032;-26
2023/12/11 00:22:50;;;;;;;35.80;15.95;;;;;;;3.18;85.46;99908.91;5050200;28;20111;-25
2023/12/11 00:25:15;;;;;;;35.30;15.10;;;;;;;3.21;86.47;99908.63;5050127;28;20436;-26
2023/12/11 00:27:41;;;;;;;35.55;15.40;;;;;;;3.34;86.06;99922.22;5050508;28;20025;-25
2023/12/11 00:30:07;;;;;;;36.35;15.55;;;;;;;3.55;85.08;99918.44;5050445;28;20032;-26
2023/12/11 00:32:32;;;;;;;37.33;16.13;;;;;;;3.48;84.27;99924.31;5050359;28;20468;-26
2023/12/11 00:34:58;;;;;;;35.97;15.40;;;;;;;3.43;84.91;99929.19;5050247;28;20049;-25
2023/12/11 00:37:23;;;;;;;35.83;16.13;;;;;;;3.58;85.20;99918.09;5050375;28;20021;-26
2023/12/11 00:39:48;;;;;;;40.83;16.25;;;;;;;3.56;83.50;99906.91;5050219;28;20044;-26
2023/12/11 00:42:14;;;;;;;40.08;15.98;;;;;;;3.34;84.43;99914.31;5049837;28;20108;-26
2023/12/11 00:44:39;;;;;;;40.42;17.75;;;;;;;3.36;85.75;99909.72;5049888;28;20112;-25
2023/12/11 00:47:05;;;;;;;40.60;17.73;;;;;;;3.49;85.66;99904.91;5051859;28;20078;-26
2023/12/11 00:49:31;;;;;;;40.75;17.45;;;;;;;3.23;86.39;99904.03;5054042;28;20113;-26
2023/12/11 00:51:57;;;;;;;43.88;17.55;;;;;;;3.07;86.64;99884.50;5054080;28;20451;-25
2023/12/11 00:54:22;;;;;;;37.15;16.42;;;;;;;3.07;86.63;99897.66;5054001;28;20146;-24
2023/12/11 00:56:47;;;;;;;40.08;17.52;;;;;;;3.00;87.50;99893.16;5054037;28;20424;-25
2023/12/11 00:59:13;;;;;;;37.25;17.02;;;;;;;2.90;87.57;99891.44;5053914;28;20052;-27
2023/12/11 01:01:38;;;;;;;38.47;17.42;;;;;;;2.79;87.47;99886.38;5053914;28;20052;-26
2023/12/11 01:04:04;;;;;;;46.78;17.98;;;;;;;2.84;88.40;99878.88;5054100;28;20025;-26
2023/12/11 01:06:29;;;;;;;44.45;17.85;;;;;;;2.94;88.68;99882.25;5053591;28;20017;-26
2023/12/11 01:08:55;;;;;;;41.92;18.23;;;;;;;3.02;87.50;99885.94;5053354;28;20029;-26
2023/12/11 01:11:20;;;;;;;41.22;18.13;;;;;;;3.00;87.98;99874.75;5053721;28;20531;-25
2023/12/11 01:13:45;;;;;;;41.00;18.15;;;;;;;2.98;87.45;99863.56;5053821;28;20048;-25
2023/12/11 01:16:11;;;;;;;43.90;18.20;;;;;;;3.00;86.18;99857.16;5053406;28;20540;-26
2023/12/11 01:18:36;;;;;;;41.38;17.00;;;;;;;2.74;87.20;99842.16;5053591;28;20036;-26
2023/12/11 01:21:02;;;;;;;40.60;16.98;;;;;;;2.76;87.87;99844.66;5053417;28;20071;-26
2023/12/11 01:23:27;;;;;;;39.03;17.38;;;;;;;2.76;88.55;99843.81;5053282;28;20070;-26
2023/12/11 01:25:53;;;;;;;41.75;16.90;;;;;;;2.68;89.11;99837.50;5053504;28;20056;-25
2023/12/11 01:28:18;;;;;;;39.08;17.20;;;;;;;2.64;89.95;99841.41;5053232;28;20029;-25
2023/12/11 01:30:43;;;;;;;44.92;18.58;;;;;;;2.70;90.01;99840.81;5053338;28;20592;-25
2023/12/11 01:33:09;;;;;;;41.30;17.95;;;;;;;2.61;87.12;99832.97;5053099;28;20044;-25
2023/12/11 01:35:34;;;;;;;40.92;17.65;;;;;;;2.53;88.19;99833.72;5053141;28;20021;-25
2023/12/11 01:38:00;;;;;;;42.85;18.63;;;;;;;2.40;88.44;99826.25;5053592;28;20021;-26
2023/12/11 01:40:26;;;;;;;42.22;17.75;;;;;;;2.31;88.38;99830.56;5053191;28;20469;-25
2023/12/11 01:42:51;;;;;;;42.72;17.95;;;;;;;2.21;88.66;99835.06;5052814;28;20440;-26
2023/12/11 01:45:17;;;;;;;42.50;15.45;;;;;;;2.64;87.31;99824.81;5053239;28;20543;-25
2023/12/11 01:47:42;;;;;;;41.17;16.67;;;;;;;2.48;88.94;99825.50;5052973;28;20485;-25
2023/12/11 01:50:10;;;;;;;41.20;16.98;;;;;;;2.35;89.73;99825.84;5052900;28;20021;-25
2023/12/11 01:52:37;;;;;;;39.95;15.73;;;;;;;2.33;90.53;99831.25;5052900;28;20141;-28
2023/12/11 01:55:04;;;;;;;41.08;16.52;;;;;;;2.39;91.42;99826.38;5052954;28;20060;-25
2023/12/11 01:57:31;;;;;;;41.38;16.55;;;;;;;2.44;90.26;99819.72;5052726;28;20032;-25
2023/12/11 01:59:57;;;;;;;38.38;15.32;;;;;;;2.25;90.27;99833.78;5052857;28;20047;-25
2023/12/11 02:02:22;;;;;;;40.15;16.58;;;;;;;2.15;90.90;99848.75;5053445;28;20458;-25
2023/12/11 02:04:49;;;;;;;37.58;16.17;;;;;;;2.18;90.80;99842.41;5053443;28;20107;-25
2023/12/11 02:07:18;;;;;;;41.63;17.02;;;;;;;2.10;91.90;99843.97;5053495;28;20040;-26
2023/12/11 02:09:43;;;;;;;40.20;16.52;;;;;;;2.27;90.12;99846.78;5053030;28;20055;-25
2023/12/11 02:12:09;;;;;;;38.58;16.77;;;;;;;2.01;89.94;99844.81;5053072;28;20068;-25
2023/12/11 02:14:34;;;;;;;41.90;17.48;;;;;;;2.13;90.13;99848.94;5052772;28;20032;-25
2023/12/11 02:17:00;;;;;;;41.95;18.40;;;;;;;2.10;91.42;99836.09;5053155;28;20485;-25
2023/12/11 02:19:25;;;;;;;53.95;19.67;;;;;;;2.19;91.20;99850.16;5052994;28;20446;-25
2023/12/11 02:21:52;;;;;;;49.45;19.02;;;;;;;2.17;89.16;99846.84;5052596;28;20025;-26
2023/12/11 02:24:32;;;;;;;44.80;19.33;;;;;;;2.10;91.00;99848.38;5052863;28;20029;-26
2023/12/11 02:26:58;;;;;;;47.80;20.52;;;;;;;2.24;93.50;99855.75;5052687;28;20040;-25
2023/12/11 02:29:24;;;;;;;45.88;19.75;;;;;;;2.22;91.15;99847.19;5052620;28;20032;-26
2023/12/11 02:31:49;;;;;;;48.45;19.08;;;;;;;2.19;92.48;99846.66;5051914;28;20445;-26
2023/12/11 02:34:15;;;;;;;53.63;20.67;;;;;;;2.23;90.74;99853.28;5052491;28;20079;-26
2023/12/11 02:36:40;;;;;;;44.90;18.27;;;;;;;2.24;91.57;99842.63;5052188;28;20016;-26
2023/12/11 02:39:05;;;;;;;49.83;20.17;;;;;;;2.38;90.43;99843.09;5052342;28;20468;-26
2023/12/11 02:41:31;;;;;;;40.35;18.52;;;;;;;2.16;90.14;99818.91;5052874;28;20071;-26
2023/12/11 02:43:58;;;;;;;46.25;17.92;;;;;;;2.33;89.89;99839.13;5052605;28;20025;-26
2023/12/11 02:46:23;;;;;;;45.45;19.02;;;;;;;2.43;88.78;99833.00;5052295;28;20029;-26
2023/12/11 02:48:49;;;;;;;50.15;20.25;;;;;;;2.96;85.19;99834.78;5052564;28;20132;-26
2023/12/11 02:51:18;;;;;;;49.28;19.55;;;;;;;3.15;82.70;99831.16;5052113;28;20021;-25
2023/12/11 02:53:43;;;;;;;42.05;18.75;;;;;;;3.04;83.34;99842.72;5052386;28;20074;-26
2023/12/11 02:56:09;;;;;;;47.92;19.55;;;;;;;3.02;81.60;99825.47;5052292;28;20037;-26
2023/12/11 02:58:34;;;;;;;48.90;19.45;;;;;;;3.37;80.52;99840.38;5052273;28;20025;-26
2023/12/11 03:01:00;;;;;;;46.65;20.75;;;;;;;3.43;79.17;99852.91;5052151;28;20487;-26
2023/12/11 03:03:25;;;;;;;51.08;20.70;;;;;;;3.34;79.32;99851.19;5052343;28;20025;-26
2023/12/11 03:05:52;;;;;;;50.20;20.08;;;;;;;3.53;78.98;99845.72;5051930;28;20722;-26
2023/12/11 03:08:17;;;;;;;56.40;21.13;;;;;;;3.39;80.48;99853.34;5052232;28;20668;-25
2023/12/11 03:10:43;;;;;;;51.85;20.90;;;;;;;3.37;80.28;99853.50;5051715;28;20107;-26
2023/12/11 03:13:08;;;;;;;52.15;20.10;;;;;;;3.01;79.36;99840.44;5052041;28;20504;-26
2023/12/11 03:15:33;;;;;;;52.75;21.73;;;;;;;3.24;79.17;99842.56;5051942;28;20458;-26
2023/12/11 03:18:00;;;;;;;53.35;20.98;;;;;;;3.06;79.70;99843.41;5051835;28;20051;-26
2023/12/11 03:20:25;;;;;;;49.83;20.50;;;;;;;3.19;79.27;99842.19;5051756;28;20035;-26
2023/12/11 03:22:51;;;;;;;51.33;20.63;;;;;;;3.18;78.29;99846.66;5051706;28;20408;-26
2023/12/11 03:25:16;;;;;;;51.33;21.77;;;;;;;3.16;78.66;99856.50;5051431;28;20497;-26
2023/12/11 03:27:41;;;;;;;51.65;20.73;;;;;;;3.04;78.86;99848.00;5051932;28;20025;-25
2023/12/11 03:30:07;;;;;;;50.25;21.50;;;;;;;2.99;78.34;99846.78;5051966;28;20040;-26
2023/12/11 03:32:33;;;;;;;54.00;20.63;;;;;;;2.90;79.20;99841.47;5051040;28;20487;-26
2023/12/11 03:34:58;;;;;;;54.95;20.92;;;;;;;2.51;80.55;99852.31;5051159;28;20453;-26
2023/12/11 03:37:23;;;;;;;60.03;21.67;;;;;;;2.61;82.02;99856.63;5051098;28;20024;-27
2023/12/11 03:39:49;;;;;;;44.15;18.75;;;;;;;2.21;85.65;99857.84;5051511;28;20033;-25
2023/12/11 03:42:14;;;;;;;46.17;19.08;;;;;;;2.22;86.22;99849.84;5051455;28;20082;-26
2023/12/11 03:44:40;;;;;;;49.65;20.85;;;;;;;2.56;81.57;99851.03;5051614;28;20029;-26
2023/12/11 03:47:05;;;;;;;51.22;21.20;;;;;;;2.74;78.33;99847.44;5051454;28;20075;-26
2023/12/11 03:49:31;;;;;;;45.67;18.80;;;;;;;2.63;78.05;99846.81;5051527;28;20123;-26
2023/12/11 03:51:56;;;;;;;44.47;18.77;;;;;;;2.33;77.63;99849.63;5051465;28;20028;-27
2023/12/11 03:54:21;;;;;;;53.08;20.38;;;;;;;2.06;80.03;99853.09;5050766;28;20111;-26
2023/12/11 03:56:47;;;;;;;59.50;20.08;;;;;;;2.28;84.11;99854.50;5050620;28;20078;-26
2023/12/11 03:59:13;;;;;;;53.15;21.50;;;;;;;2.57;84.52;99850.88;5050777;28;20108;-27
2023/12/11 04:01:38;;;;;;;54.10;21.95;;;;;;;3.23;83.53;99851.44;5050816;28;20061;-26
2023/12/11 04:04:04;;;;;;;51.58;21.35;;;;;;;3.61;81.21;99850.19;5050899;28;20063;-26
2023/12/11 04:06:30;;;;;;;51.58;20.17;;;;;;;3.22;83.48;99849.75;5050767;28;20029;-27
2023/12/11 04:08:55;;;;;;;54.60;20.65;;;;;;;2.95;84.90;99854.16;5051323;28;20032;-26
2023/12/11 04:11:21;;;;;;;49.65;19.33;;;;;;;2.60;87.41;99850.56;5051424;28;20594;-26
2023/12/11 04:13:46;;;;;;;44.83;19.77;;;;;;;2.04;85.87;99830.59;5051294;28;20029;-26
2023/12/11 04:16:12;;;;;;;46.25;19.30;;;;;;;2.11;89.00;99857.91;5051232;28;20025;-26
2023/12/11 04:18:37;;;;;;;48.22;20.25;;;;;;;2.05;89.70;99866.38;5051013;28;20027;-27
2023/12/11 04:21:03;;;;;;;50.72;21.15;;;;;;;2.91;88.18;99873.84;5051144;28;20032;-26
2023/12/11 04:23:28;;;;;;;50.15;21.60;;;;;;;2.62;87.36;99864.38;5055036;28;20052;-26
2023/12/11 04:25:57;;;;;;;51.42;20.48;;;;;;;2.37;87.15;99881.69;5054298;28;20126;-27
2023/12/11 04:28:22;;;;;;;53.28;21.73;;;;;;;2.43;85.67;99875.84;5054736;28;20447;-26
2023/12/11 04:30:48;;;;;;;59.95;23.70;;;;;;;3.26;93.14;99877.44;5054921;28;20044;-26
2023/12/11 04:33:13;;;;;;;47.60;18.92;;;;;;;3.26;85.91;99866.91;5054522;28;20068;-26
2023/12/11 04:35:38;;;;;;;41.63;17.30;;;;;;;2.94;80.49;99882.25;5054721;28;20102;-27
2023/12/11 04:38:04;;;;;;;43.75;18.92;;;;;;;2.56;83.36;99886.00;5054810;28;20021;-26
2023/12/11 04:40:29;;;;;;;43.55;18.40;;;;;;;3.50;81.23;99897.81;5054519;28;20028;-26
2023/12/11 04:42:55;;;;;;;42.20;19.13;;;;;;;4.02;78.32;99902.25;5054474;28;20029;-26
2023/12/11 04:45:20;;;;;;;50.17;21.25;;;;;;;2.99;83.41;99896.75;5054385;28;20036;-27
2023/12/11 04:47:46;;;;;;;47.55;20.27;;;;;;;2.60;84.13;99894.41;5054500;28;20033;-26
2023/12/11 04:50:11;;;;;;;46.40;20.48;;;;;;;3.35;82.60;99894.09;5053108;28;20197;-26
2023/12/11 04:52:37;;;;;;;48.55;20.83;;;;;;;2.99;82.29;99894.97;5052847;28;20117;-27
2023/12/11 04:55:02;;;;;;;47.58;19.80;;;;;;;2.16;85.59;99900.31;5052981;28;20451;-26
2023/12/11 04:57:28;;;;;;;45.28;18.90;;;;;;;1.67;87.78;99895.22;5053318;28;20020;-26
2023/12/11 04:59:53;;;;;;;53.30;21.17;;;;;;;1.36;89.86;99886.75;5053013;28;20035;-26
2023/12/11 05:02:19;;;;;;;56.28;23.67;;;;;;;1.48;91.32;99906.59;5054004;28;20037;-25
2023/12/11 05:04:44;;;;;;;58.33;23.23;;;;;;;2.45;87.51;99910.66;5054108;28;20021;-26
2023/12/11 05:07:09;;;;;;;57.90;24.05;;;;;;;1.83;88.91;99893.78;5053713;28;20488;-26
2023/12/11 05:09:35;;;;;;;55.50;23.35;;;;;;;1.52;89.54;99899.25;5054073;28;20029;-26
2023/12/11 05:12:01;;;;;;;56.10;23.95;;;;;;;1.35;89.81;99898.19;5053826;28;20104;-26
2023/12/11 05:14:26;;;;;;;59.67;23.08;;;;;;;1.40;91.02;99888.13;5053843;28;20083;-26
2023/12/11 05:16:51;;;;;;;53.28;22.80;;;;;;;1.46;90.59;99889.34;5054087;28;20025;-27
2023/12/11 05:19:17;;;;;;;58.65;22.88;;;;;;;1.32;90.69;99888.00;5053708;28;20024;-27
2023/12/11 05:21:46;;;;;;;55.58;21.42;;;;;;;1.43;92.57;99884.38;5054180;28;20556;-26
2023/12/11 05:24:12;;;;;;;48.53;21.98;;;;;;;1.31;91.25;99878.47;5053337;28;20048;-28
2023/12/11 05:26:37;;;;;;;60.75;24.05;;;;;;;1.41;90.63;99887.16;5054103;28;20064;-27
2023/12/11 05:29:04;;;;;;;62.50;26.20;;;;;;;1.55;90.09;99881.44;5053778;28;20031;-27
2023/12/11 05:31:30;;;;;;;56.97;24.05;;;;;;;1.54;89.31;99884.22;5053672;28;20083;-27
2023/12/11 05:33:55;;;;;;;51.20;23.58;;;;;;;1.30;90.03;99882.88;5052698;28;20501;-27
2023/12/11 05:36:21;;;;;;;64.95;25.95;;;;;;;1.29;90.66;99885.66;5052679;28;20025;-27
2023/12/11 05:38:46;;;;;;;65.45;24.63;;;;;;;1.90;92.00;99882.59;5052186;28;20032;-27
2023/12/11 05:41:12;;;;;;;60.75;23.90;;;;;;;1.62;88.95;99878.25;5052801;28;20025;-26
2023/12/11 05:43:37;;;;;;;59.60;24.90;;;;;;;1.27;90.20;99879.72;5052949;28;20028;-27
2023/12/11 05:46:02;;;;;;;68.05;25.38;;;;;;;1.37;92.38;99877.88;5052797;28;20021;-27
2023/12/11 05:48:28;;;;;;;77.20;28.33;;;;;;;1.97;92.15;99882.84;5053424;28;20484;-26
2023/12/11 05:50:53;;;;;;;59.70;26.00;;;;;;;4.00;90.04;99888.41;5053758;28;20021;-27
2023/12/11 05:53:19;;;;;;;52.83;24.67;;;;;;;2.67;84.80;99883.16;5051807;28;20053;-27
2023/12/11 05:55:44;;;;;;;58.53;25.60;;;;;;;2.23;86.44;99888.25;5053302;28;20028;-27
2023/12/11 05:58:10;;;;;;;60.70;25.50;;;;;;;2.13;87.78;99884.84;5053383;28;20384;-27
2023/12/11 06:00:35;;;;;;;58.97;26.05;;;;;;;2.24;86.22;99887.28;5053190;28;20025;-27
2023/12/11 06:03:00;;;;;;;62.33;25.77;;;;;;;1.86;87.00;99883.84;5053121;28;20029;-27
2023/12/11 06:05:26;;;;;;;61.38;25.75;;;;;;;1.63;88.13;99887.78;5053473;28;20528;-27
2023/12/11 06:07:51;;;;;;;55.40;25.40;;;;;;;1.47;89.86;99891.00;5053509;28;20024;-27
2023/12/11 06:10:17;;;;;;;76.80;30.00;;;;;;;1.27;90.97;99871.84;5053761;28;20477;-26
2023/12/11 06:12:42;;;;;;;69.15;28.17;;;;;;;1.52;90.67;99892.25;5053696;28;20031;-27
2023/12/11 06:15:08;;;;;;;63.08;27.30;;;;;;;1.76;90.76;99891.75;5053777;28;20028;-27
2023/12/11 06:17:33;;;;;;;66.93;28.90;;;;;;;1.82;90.10;99884.28;5053740;28;20445;-27
2023/12/11 06:19:59;;;;;;;74.47;29.95;;;;;;;2.05;88.51;99897.88;5053061;28;20104;-27
2023/12/11 06:22:24;;;;;;;66.97;29.25;;;;;;;2.04;89.23;99890.97;5053736;28;20040;-27
2023/12/11 06:24:50;;;;;;;70.18;29.08;;;;;;;2.32;87.84;99897.91;5053140;28;20095;-27
2023/12/11 06:27:15;;;;;;;69.60;28.90;;;;;;;2.24;88.06;99900.41;5052861;28;20107;-26
2023/12/11 06:29:41;;;;;;;67.32;28.73;;;;;;;2.26;87.73;99900.25;5053469;28;20021;-28
2023/12/11 06:32:08;;;;;;;79.43;29.05;;;;;;;2.09;88.34;99905.31;5052873;28;20056;-27
2023/12/11 06:34:34;;;;;;;67.57;28.73;;;;;;;2.40;88.07;99906.81;5053019;28;20036;-28
2023/12/11 06:36:59;;;;;;;60.72;26.65;;;;;;;2.73;90.20;99908.84;5052910;28;20019;-28
2023/12/11 06:39:26;;;;;;;57.83;25.48;;;;;;;2.92;85.81;99899.16;5052387;28;20025;-27
2023/12/11 06:41:52;;;;;;;60.92;26.17;;;;;;;2.88;85.39;99900.44;5052934;28;20082;-27
2023/12/11 06:44:18;;;;;;;60.95;27.08;;;;;;;3.03;85.00;99906.84;5052301;28;20029;-28
2023/12/11 06:46:43;;;;;;;57.97;26.45;;;;;;;3.30;84.29;99902.47;5052910;28;20423;-27
2023/12/11 06:49:09;;;;;;;63.97;25.30;;;;;;;3.22;83.96;99889.22;5052388;28;20021;-30
2023/12/11 06:51:35;;;;;;;72.30;32.97;;;;;;;3.45;84.30;99906.19;5052861;28;20025;-27
2023/12/11 06:54:01;;;;;;;66.50;31.65;;;;;;;3.72;83.19;99909.66;5052442;28;20029;-27
2023/12/11 06:56:32;;;;;;;62.90;26.70;;;;;;;3.84;82.32;99905.75;5052076;28;20028;-27
2023/12/11 06:58:58;;;;;;;59.20;25.67;;;;;;;4.13;81.61;99901.16;5050756;28;20025;-27
2023/12/11 07:01:31;;;;;;;57.85;24.55;;;;;;;4.42;78.93;99909.50;5048488;28;20028;-27
2023/12/11 07:03:56;;;;;;;52.03;22.67;;;;;;;4.43;77.94;99907.69;5051699;28;20079;-27
2023/12/11 07:06:22;;;;;;;50.85;22.95;;;;;;;4.48;77.44;99908.03;5052499;28;20503;-27
2023/12/11 07:08:48;;;;;;;59.10;23.02;;;;;;;4.65;77.42;99906.28;5052526;28;20028;-29
2023/12/11 07:11:13;;;;;;;51.03;23.25;;;;;;;5.04;76.03;99924.16;5051766;28;20104;-27
2023/12/11 07:13:42;;;;;;;54.88;23.85;;;;;;;5.38;74.16;99925.81;5051129;28;20025;-27
2023/12/11 07:16:11;;;;;;;55.72;24.75;;;;;;;5.31;73.51;99938.84;5051380;28;20484;-27
2023/12/11 07:18:37;;;;;;;53.13;23.20;;;;;;;5.21;73.22;99930.25;5051445;28;20325;-27
2023/12/11 07:21:12;;;;;;;54.00;23.52;;;;;;;4.58;76.34;99940.34;5050783;28;20267;-28
2023/12/11 07:23:38;;;;;;;52.53;24.63;;;;;;;4.63;76.87;99929.34;5050357;28;20021;-27
2023/12/11 07:26:08;;;;;;;50.83;22.08;;;;;;;4.90;77.03;99926.44;5051200;28;20104;-27
2023/12/11 07:28:37;;;;;;;53.42;23.67;;;;;;;4.85;76.83;99927.91;5050955;28;20021;-27
2023/12/11 07:31:03;;;;;;;53.72;22.23;;;;;;;4.80;77.65;99930.22;5051040;28;20082;-28
2023/12/11 07:33:28;;;;;;;52.00;21.05;;;;;;;5.05;76.77;99928.44;5050829;28;20049;-27
2023/12/11 07:35:54;;;;;;;46.08;21.77;;;;;;;5.03;75.28;99938.34;5050897;28;20480;-27
2023/12/11 07:38:19;;;;;;;51.78;22.38;;;;;;;5.48;73.94;99924.69;5050960;28;20102;-27
2023/12/11 07:40:45;;;;;;;52.08;21.55;;;;;;;5.28;73.63;99928.63;5050933;28;20044;-27
2023/12/11 07:43:11;;;;;;;52.28;21.48;;;;;;;5.10;75.41;99926.13;5050547;28;20037;-28
2023/12/11 07:45:37;;;;;;;48.38;21.88;;;;;;;4.70;76.35;99925.91;5050721;28;20025;-28
2023/12/11 07:48:03;;;;;;;45.78;19.52;;;;;;;4.99;75.97;99923.81;5050777;28;20044;-27
2023/12/11 07:50:28;;;;;;;39.35;16.85;;;;;;;5.13;75.47;99923.16;5050296;28;20025;-27
2023/12/11 07:52:54;;;;;;;50.20;19.33;;;;;;;5.48;74.33;99919.41;5050588;28;20032;-29
2023/12/11 07:55:19;;;;;;;39.60;17.92;;;;;;;5.31;74.74;99924.81;5049877;28;20029;-28
2023/12/11 07:57:45;;;;;;;44.22;17.40;;;;;;;4.98;75.83;99915.06;5049599;28;20032;-27
2023/12/11 08:00:11;;;;;;;41.38;16.70;;;;;;;5.03;75.53;99918.06;5050644;28;20182;-27
2023/12/11 08:02:37;;;;;;;43.30;19.08;;;;;;;5.23;76.53;99918.53;5050860;28;20352;-27
2023/12/11 08:05:02;;;;;;;43.00;18.25;;;;;;;5.41;75.54;99923.69;5050896;28;20021;-27
2023/12/11 08:07:28;;;;;;;44.78;19.38;;;;;;;5.71;74.73;99920.50;5050685;28;20538;-27
2023/12/11 08:09:53;;;;;;;39.05;17.80;;;;;;;5.78;73.30;99921.50;5050285;28;20059;-28
2023/12/11 08:12:18;;;;;;;38.13;16.92;;;;;;;6.12;72.22;99917.81;5050725;28;20100;-28
2023/12/11 08:14:44;;;;;;;40.30;17.92;;;;;;;6.05;72.22;99928.22;5050547;28;20025;-27
2023/12/11 08:17:10;;;;;;;39.50;17.98;;;;;;;6.49;71.60;99940.94;5050309;28;20088;-28
2023/12/11 08:19:36;;;;;;;44.58;18.50;;;;;;;6.29;71.42;99935.25;5050333;28;20545;-29
2023/12/11 08:22:01;;;;;;;47.30;20.40;;;;;;;6.85;69.47;99921.91;5050273;28;20037;-27
2023/12/11 08:24:27;;;;;;;39.33;18.30;;;;;;;7.07;68.87;99925.59;5050535;28;20025;-28
2023/12/11 08:26:52;;;;;;;43.28;18.40;;;;;;;7.14;67.56;99921.25;5050369;28;20036;-27
2023/12/11 08:29:21;;;;;;;40.75;18.77;;;;;;;7.07;66.90;99927.44;5050353;28;20473;-28
2023/12/11 08:31:46;;;;;;;43.05;19.38;;;;;;;6.89;67.62;99925.84;5050649;28;20060;-28
2023/12/11 08:34:12;;;;;;;43.75;18.85;;;;;;;7.20;67.17;99925.00;5050510;28;20052;-29
2023/12/11 08:36:37;;;;;;;41.83;18.40;;;;;;;7.45;67.31;99920.34;5050452;28;20021;-27
2023/12/11 08:39:03;;;;;;;45.20;19.10;;;;;;;7.12;67.83;99925.91;5050120;28;20408;-26
2023/12/11 08:41:28;;;;;;;43.08;18.90;;;;;;;7.79;65.53;99927.81;5050364;28;20508;-27
2023/12/11 08:43:55;;;;;;;38.83;18.98;;;;;;;7.86;65.12;99919.94;5050077;28;20025;-27
2023/12/11 08:46:20;;;;;;;43.97;18.55;;;;;;;8.25;63.99;99918.06;5050451;28;20024;-26
2023/12/11 08:48:46;;;;;;;39.17;18.73;;;;;;;7.98;63.54;99923.00;5050282;28;20350;-29
2023/12/11 08:51:11;;;;;;;48.25;21.10;;;;;;;8.13;64.34;99920.31;5050725;28;20104;-29
2023/12/11 08:53:37;;;;;;;44.13;19.17;;;;;;;8.25;63.93;99912.75;5049825;28;20051;-31
2023/12/11 08:56:03;;;;;;;51.38;20.80;;;;;;;8.38;64.09;99912.91;5049516;28;20074;-28
2023/12/11 08:58:28;;;;;;;44.40;20.98;;;;;;;8.15;65.03;99905.91;5050166;28;20051;-27
2023/12/11 09:00:53;;;;;;;45.90;20.23;;;;;;;7.77;64.75;99890.06;5049869;28;20116;-27
2023/12/11 09:03:20;;;;;;;43.67;20.88;;;;;;;8.47;64.55;99897.75;5047411;28;20029;-28
2023/12/11 09:05:46;;;;;;;45.70;20.95;;;;;;;8.77;61.56;99906.44;5049797;28;20021;-28
2023/12/11 09:08:11;;;;;;;48.13;22.63;;;;;;;8.63;62.71;99902.84;5051281;28;20114;-28
2023/12/11 09:10:37;;;;;;;51.58;20.88;;;;;;;9.32;61.27;99893.50;5053286;28;20107;-28
2023/12/11 09:13:02;;;;;;;44.88;20.55;;;;;;;9.42;60.12;99882.53;5053233;28;20021;-30
2023/12/11 09:15:28;;;;;;;43.00;20.30;;;;;;;9.21;59.89;99876.25;5053356;28;20040;-26
2023/12/11 09:17:54;;;;;;;45.85;20.50;;;;;;;9.19;62.33;99879.13;5053138;28;20033;-29
2023/12/11 09:20:22;;;;;;;44.28;20.88;;;;;;;9.28;60.79;99878.97;5050696;28;20044;-28
2023/12/11 09:22:47;;;;;;;45.28;21.73;;;;;;;9.15;61.80;99880.47;5053395;28;20021;-29
2023/12/11 09:25:13;;;;;;;42.70;20.33;;;;;;;9.90;59.99;99866.72;5053915;28;20024;-27
2023/12/11 09:27:38;;;;;;;43.63;21.33;;;;;;;9.84;58.51;99868.31;5053427;28;20120;-28
2023/12/11 09:30:09;;;;;;;45.92;21.95;;;;;;;9.08;60.23;99869.00;5053318;28;20029;-27
2023/12/11 09:32:35;;;;;;;47.75;22.58;;;;;;;8.79;61.23;99870.75;5053210;28;20080;-28
2023/12/11 09:35:00;;;;;;;47.95;22.92;;;;;;;8.67;61.95;99874.09;5053396;28;20516;-26
2023/12/11 09:37:26;;;;;;;48.30;23.83;;;;;;;9.07;61.16;99871.84;5053274;28;20031;-28
2023/12/11 09:39:51;;;;;;;51.42;23.00;;;;;;;9.18;60.25;99863.38;5053368;28;20028;-27
2023/12/11 09:42:17;;;;;;;53.58;23.10;;;;;;;9.57;58.88;99838.09;5052888;28;20028;-28
2023/12/11 09:44:48;;;;;;;52.20;24.27;;;;;;;10.59;57.65;99833.09;5053309;28;20067;-27
2023/12/11 09:47:29;;;;;;;46.15;23.30;;;;;;;11.07;55.47;99849.72;5053290;28;20033;-26
2023/12/11 09:49:54;;;;;;;54.92;24.70;;;;;;;11.86;53.09;99849.84;5053023;28;20029;-27
2023/12/11 09:52:22;;;;;;;46.35;23.75;;;;;;;11.88;52.30;99845.13;5052437;28;20032;-27
2023/12/11 09:54:47;;;;;;;51.60;24.15;;;;;;;11.24;55.22;99838.69;5052709;28;20044;-28
2023/12/11 09:57:15;;;;;;;46.00;22.40;;;;;;;11.99;52.78;99844.50;5052332;28;20021;-29
2023/12/11 09:59:42;;;;;;;50.63;24.30;;;;;;;12.09;52.53;99844.91;5052843;28;20036;-29
2023/12/11 10:02:14;;;;;;;52.88;23.85;;;;;;;12.55;51.34;99842.25;5052665;28;20025;-28
2023/12/11 10:05:09;;;;;;;47.50;24.33;;;;;;;12.80;50.45;99843.09;5052020;28;20048;-29
2023/12/11 10:07:40;;;;;;;47.20;23.15;;;;;;;13.26;48.43;99836.59;5052477;28;20036;-28
2023/12/11 10:10:28;;;;;;;49.55;24.33;;;;;;;13.09;46.94;99836.31;5052450;28;20025;-30
2023/12/11 10:12:54;;;;;;;50.38;23.83;;;;;;;12.86;47.63;99828.06;5052596;28;20435;-26
2023/12/11 10:15:28;;;;;;;50.38;23.95;;;;;;;12.29;49.23;99833.31;5052661;28;20083;-28
2023/12/11 10:18:09;;;;;;;51.25;23.63;;;;;;;12.50;49.35;99835.66;5052647;28;20104;-28
2023/12/11 10:20:36;;;;;;;54.40;23.73;;;;;;;12.82;48.90;99824.19;5051470;28;20117;-28
2023/12/11 10:23:20;;;;;;;48.72;24.58;;;;;;;12.29;49.98;99826.13;5052397;28;20027;-28
2023/12/11 10:25:48;;;;;;;55.20;27.92;;;;;;;12.31;50.26;99821.41;5052151;28;20167;-28
2023/12/11 10:28:16;;;;;;;56.25;26.10;;;;;;;12.42;50.90;99821.78;5052268;28;20037;-28
2023/12/11 10:31:02;;;;;;;50.15;24.35;;;;;;;12.91;49.75;99813.03;5052373;28;20057;-28
2023/12/11 10:33:31;;;;;;;49.35;22.63;;;;;;;12.56;49.93;99809.16;5052082;28;20049;-27
2023/12/11 10:36:12;;;;;;;50.78;23.45;;;;;;;12.33;50.25;99805.19;5052453;28;20140;-29
2023/12/11 10:38:38;;;;;;;;;;;;;;;11.80;52.29;99794.69;5052718;28;20035;-30
2023/12/11 10:41:05;;;;;;;44.88;21.80;;;;;;;12.32;51.36;99784.88;5052166;28;19912;-29
2023/12/11 10:43:41;;;;;;;42.08;21.13;;;;;;;12.28;50.50;99767.63;5051638;28;20031;-28
2023/12/11 10:46:07;;;;;;;49.33;20.58;;;;;;;12.28;51.73;99778.31;5051974;28;20072;-29
2023/12/11 10:48:34;;;;;;;50.65;20.50;;;;;;;12.17;51.60;99768.34;5051743;28;20159;-29
2023/12/11 10:51:02;;;;;;;44.83;21.55;;;;;;;12.24;51.25;99759.28;5051698;28;20025;-28
2023/12/11 10:53:27;;;;;;;45.05;22.10;;;;;;;12.67;49.82;99755.91;5051857;28;20059;-28
2023/12/11 10:55:55;;;;;;;42.17;21.35;;;;;;;12.36;50.92;99751.41;5052157;28;20049;-29
2023/12/11 10:58:20;;;;;;;41.17;20.45;;;;;;;10.90;55.02;99744.66;5051742;28;20043;-27
2023/12/11 11:00:46;;;;;;;46.60;20.70;;;;;;;11.44;54.39;99734.72;5051528;28;20024;-27
2023/12/11 11:03:13;;;;;;;45.08;21.23;;;;;;;11.12;55.45;99731.94;5051632;28;20066;-28
2023/12/11 11:05:38;;;;;;;42.88;20.60;;;;;;;11.46;54.77;99730.84;5051739;28;20029;-28
2023/12/11 11:08:35;;;;;;;42.33;19.98;;;;;;;10.99;56.39;99723.97;5051531;28;20025;-28
2023/12/11 11:11:14;;;;;;;41.38;19.08;;;;;;;11.53;55.46;99731.63;5051432;28;20047;-29
2023/12/11 11:14:02;;;;;;;42.28;19.48;;;;;;;11.99;54.26;99726.34;5051218;28;20498;-28
2023/12/11 11:16:56;;;;;;;43.28;18.80;;;;;;;12.09;53.51;99724.88;5051931;28;20181;-27
2023/12/11 11:19:24;;;;;;;41.08;18.80;;;;;;;12.39;52.16;99726.13;5051437;28;20033;-27
2023/12/11 11:22:04;;;;;;;36.97;18.83;;;;;;;12.30;52.63;99720.25;5051824;28;20048;-28